sensor_id;sensor_type;location;lat;lon;timestamp;pressure;altitude;pressure_sealevel;temperature;humidity
50434;BME280;36361;38.954;-9.002;2022-11-15T00:00:09;100824.91;;;16.64;100.00
50434;BME280;36361;38.954;-9.002;2022-11-15T00:01:29;100823.91;;;16.70;100.00
50434;BME280;36361;38.954;-9.002;2022-11-15T00:02:48;100825.06;;;16.74;100.00
50434;BME280;36361;38.954;-9.002;2022-11-15T00:04:09;100827.41;;;16.83;100.00
50434;BME280;36361;38.954;-9.002;2022-11-15T00:05:29;100824.38;;;16.67;100.00
50434;BME280;36361;38.954;-9.002;2022-11-15T00:06:47;100827.03;;;16.62;100.00
50434;BME280;36361;38.954;-9.002;2022-11-15T00:08:06;100815.41;;;16.55;100.00
50434;BME280;36361;38.954;-9.002;2022-11-15T00:09:26;100825.38;;;16.61;100.00
50434;BME280;36361;38.954;-9.002;2022-11-15T00:10:57;100826.97;;;16.57;100.00
50434;BME280;36361;38.954;-9.002;2022-11-15T00:12:19;100823.88;;;16.54;100.00
50434;BME280;36361;38.954;-9.002;2022-11-15T00:13:39;100823.66;;;16.55;100.00
50434;BME280;36361;38.954;-9.002;2022-11-15T00:14:59;100825.75;;;16.48;100.00
50434;BME280;36361;38.954;-9.002;2022-11-15T00:16:17;100819.22;;;16.54;100.00
50434;BME280;36361;38.954;-9.002;2022-11-15T00:17:39;100814.66;;;16.60;100.00
50434;BME280;36361;38.954;-9.002;2022-11-15T00:18:58;100828.97;;;16.62;100.00
50434;BME280;36361;38.954;-9.002;2022-11-15T00:20:18;100822.72;;;16.66;100.00
50434;BME280;36361;38.954;-9.002;2022-11-15T00:21:36;100827.03;;;16.62;100.00
50434;BME280;36361;38.954;-9.002;2022-11-15T00:22:58;100836.31;;;16.56;100.00
50434;BME280;36361;38.954;-9.002;2022-11-15T00:24:18;100837.19;;;16.62;100.00
50434;BME280;36361;38.954;-9.002;2022-11-15T00:25:37;100830.56;;;16.58;100.00
50434;BME280;36361;38.954;-9.002;2022-11-15T00:26:57;100844.03;;;16.59;100.00
50434;BME280;36361;38.954;-9.002;2022-11-15T00:28:15;100845.63;;;16.72;100.00
50434;BME280;36361;38.954;-9.002;2022-11-15T00:29:34;100848.28;;;16.50;100.00
50434;BME280;36361;38.954;-9.002;2022-11-15T00:31:01;100838.28;;;16.44;100.00
50434;BME280;36361;38.954;-9.002;2022-11-15T00:32:21;100841.44;;;16.53;100.00
50434;BME280;36361;38.954;-9.002;2022-11-15T00:33:43;100832.31;;;16.47;100.00
50434;BME280;36361;38.954;-9.002;2022-11-15T00:35:02;100826.56;;;16.32;100.00
50434;BME280;36361;38.954;-9.002;2022-11-15T00:36:21;100819.56;;;16.24;100.00
50434;BME280;36361;38.954;-9.002;2022-11-15T00:37:40;100817.19;;;16.28;100.00
50434;BME280;36361;38.954;-9.002;2022-11-15T00:38:59;100810.00;;;16.27;100.00
50434;BME280;36361;38.954;-9.002;2022-11-15T00:40:18;100802.38;;;16.29;100.00
50434;BME280;36361;38.954;-9.002;2022-11-15T00:41:37;100802.78;;;16.20;100.00
50434;BME280;36361;38.954;-9.002;2022-11-15T00:42:56;100809.66;;;16.06;100.00
50434;BME280;36361;38.954;-9.002;2022-11-15T00:44:16;100813.34;;;16.12;100.00
50434;BME280;36361;38.954;-9.002;2022-11-15T00:45:34;100814.75;;;16.14;100.00
50434;BME280;36361;38.954;-9.002;2022-11-15T00:46:54;100815.41;;;16.21;100.00
50434;BME280;36361;38.954;-9.002;2022-11-15T00:48:12;100812.41;;;16.23;100.00
50434;BME280;36361;38.954;-9.002;2022-11-15T00:49:32;100802.59;;;16.27;100.00
50434;BME280;36361;38.954;-9.002;2022-11-15T00:50:50;100806.19;;;16.28;100.00
50434;BME280;36361;38.954;-9.002;2022-11-15T00:52:09;100805.94;;;16.12;100.00
50434;BME280;36361;38.954;-9.002;2022-11-15T00:53:28;100803.09;;;16.07;100.00
50434;BME280;36361;38.954;-9.002;2022-11-15T00:54:47;100802.44;;;16.00;100.00
50434;BME280;36361;38.954;-9.002;2022-11-15T00:56:06;100802.34;;;16.12;100.00
50434;BME280;36361;38.954;-9.002;2022-11-15T00:57:25;100804.16;;;16.06;100.00
50434;BME280;36361;38.954;-9.002;2022-11-15T00:58:44;100797.13;;;16.10;100.00
50434;BME280;36361;38.954;-9.002;2022-11-15T01:00:04;100795.09;;;16.06;100.00
50434;BME280;36361;38.954;-9.002;2022-11-15T01:01:23;100792.22;;;16.12;100.00
50434;BME280;36361;38.954;-9.002;2022-11-15T01:02:42;100796.63;;;16.13;100.00
50434;BME280;36361;38.954;-9.002;2022-11-15T01:04:01;100791.03;;;16.25;100.00
50434;BME280;36361;38.954;-9.002;2022-11-15T01:05:20;100786.56;;;16.19;100.00
50434;BME280;36361;38.954;-9.002;2022-11-15T01:06:40;100784.72;;;16.25;100.00
50434;BME280;36361;38.954;-9.002;2022-11-15T01:07:59;100794.44;;;16.15;100.00
50434;BME280;36361;38.954;-9.002;2022-11-15T01:09:17;100784.63;;;16.19;100.00
50434;BME280;36361;38.954;-9.002;2022-11-15T01:10:36;100787.38;;;16.19;100.00
50434;BME280;36361;38.954;-9.002;2022-11-15T01:12:02;100784.28;;;16.16;100.00
50434;BME280;36361;38.954;-9.002;2022-11-15T01:13:21;100780.63;;;16.27;100.00
50434;BME280;36361;38.954;-9.002;2022-11-15T01:14:40;100775.91;;;16.23;100.00
50434;BME280;36361;38.954;-9.002;2022-11-15T01:16:05;100782.63;;;16.32;100.00
50434;BME280;36361;38.954;-9.002;2022-11-15T01:17:24;100774.66;;;16.30;100.00
50434;BME280;36361;38.954;-9.002;2022-11-15T01:18:44;100773.31;;;16.33;100.00
50434;BME280;36361;38.954;-9.002;2022-11-15T01:20:04;100772.06;;;16.24;100.00
50434;BME280;36361;38.954;-9.002;2022-11-15T01:21:23;100772.63;;;16.26;100.00
50434;BME280;36361;38.954;-9.002;2022-11-15T01:22:42;100770.81;;;16.31;100.00
50434;BME280;36361;38.954;-9.002;2022-11-15T01:24:01;100772.63;;;16.26;100.00
50434;BME280;36361;38.954;-9.002;2022-11-15T01:25:20;100769.88;;;16.26;100.00
50434;BME280;36361;38.954;-9.002;2022-11-15T01:26:39;100776.00;;;16.28;100.00
50434;BME280;36361;38.954;-9.002;2022-11-15T01:27:58;100770.22;;;16.46;100.00
50434;BME280;36361;38.954;-9.002;2022-11-15T01:29:17;100773.97;;;16.40;100.00
50434;BME280;36361;38.954;-9.002;2022-11-15T01:30:36;100766.16;;;16.32;100.00
50434;BME280;36361;38.954;-9.002;2022-11-15T01:31:55;100762.06;;;16.34;100.00
50434;BME280;36361;38.954;-9.002;2022-11-15T01:33:17;100764.56;;;16.36;100.00
50434;BME280;36361;38.954;-9.002;2022-11-15T01:34:37;100758.91;;;16.42;100.00
50434;BME280;36361;38.954;-9.002;2022-11-15T01:35:56;100767.53;;;16.51;100.00
50434;BME280;36361;38.954;-9.002;2022-11-15T01:37:15;100761.16;;;16.29;100.00
50434;BME280;36361;38.954;-9.002;2022-11-15T01:38:34;100764.13;;;16.27;100.00
50434;BME280;36361;38.954;-9.002;2022-11-15T01:39:53;100766.97;;;16.32;100.00
50434;BME280;36361;38.954;-9.002;2022-11-15T01:41:15;100760.16;;;16.35;100.00
50434;BME280;36361;38.954;-9.002;2022-11-15T01:42:36;100756.97;;;16.43;100.00
50434;BME280;36361;38.954;-9.002;2022-11-15T01:43:57;100762.56;;;16.31;100.00
50434;BME280;36361;38.954;-9.002;2022-11-15T01:45:16;100756.56;;;16.17;100.00
50434;BME280;36361;38.954;-9.002;2022-11-15T01:46:37;100757.19;;;16.19;100.00
50434;BME280;36361;38.954;-9.002;2022-11-15T01:48:00;100753.41;;;16.09;100.00
50434;BME280;36361;38.954;-9.002;2022-11-15T01:49:21;100746.78;;;16.05;100.00
50434;BME280;36361;38.954;-9.002;2022-11-15T01:50:41;100751.34;;;15.99;100.00
50434;BME280;36361;38.954;-9.002;2022-11-15T01:52:03;100747.34;;;16.24;100.00
50434;BME280;36361;38.954;-9.002;2022-11-15T01:53:24;100744.03;;;16.05;100.00
50434;BME280;36361;38.954;-9.002;2022-11-15T01:54:46;100737.03;;;15.97;100.00
50434;BME280;36361;38.954;-9.002;2022-11-15T01:56:08;100750.34;;;16.05;100.00
50434;BME280;36361;38.954;-9.002;2022-11-15T01:57:30;100750.19;;;16.12;100.00
50434;BME280;36361;38.954;-9.002;2022-11-15T01:58:50;100747.69;;;16.10;100.00
50434;BME280;36361;38.954;-9.002;2022-11-15T02:00:11;100752.16;;;16.00;100.00
50434;BME280;36361;38.954;-9.002;2022-11-15T02:01:32;100748.78;;;16.09;100.00
50434;BME280;36361;38.954;-9.002;2022-11-15T02:02:52;100745.44;;;16.24;100.00
50434;BME280;36361;38.954;-9.002;2022-11-15T02:04:26;100749.69;;;15.98;100.00
50434;BME280;36361;38.954;-9.002;2022-11-15T02:05:46;100754.44;;;15.86;100.00
50434;BME280;36361;38.954;-9.002;2022-11-15T02:07:05;100753.09;;;16.05;100.00
50434;BME280;36361;38.954;-9.002;2022-11-15T02:08:27;100749.84;;;16.08;100.00
50434;BME280;36361;38.954;-9.002;2022-11-15T02:09:46;100752.59;;;16.08;100.00
50434;BME280;36361;38.954;-9.002;2022-11-15T02:11:09;100756.81;;;15.99;100.00
50434;BME280;36361;38.954;-9.002;2022-11-15T02:12:28;100753.09;;;15.88;100.00
50434;BME280;36361;38.954;-9.002;2022-11-15T02:13:47;100750.09;;;15.90;100.00
50434;BME280;36361;38.954;-9.002;2022-11-15T02:15:09;100745.38;;;16.02;100.00
50434;BME280;36361;38.954;-9.002;2022-11-15T02:18:27;100742.09;;;15.72;100.00
50434;BME280;36361;38.954;-9.002;2022-11-15T02:21:59;100734.53;;;15.79;100.00
50434;BME280;36361;38.954;-9.002;2022-11-15T02:25:29;100731.22;;;15.93;100.00
50434;BME280;36361;38.954;-9.002;2022-11-15T02:28:49;100735.47;;;16.01;100.00
50434;BME280;36361;38.954;-9.002;2022-11-15T02:32:17;100712.66;;;16.17;100.00
50434;BME280;36361;38.954;-9.002;2022-11-15T02:40:27;100702.59;;;16.06;100.00
50434;BME280;36361;38.954;-9.002;2022-11-15T02:42:04;100699.09;;;16.28;100.00
50434;BME280;36361;38.954;-9.002;2022-11-15T02:43:50;100695.38;;;16.00;100.00
50434;BME280;36361;38.954;-9.002;2022-11-15T02:45:26;100692.28;;;16.13;100.00
50434;BME280;36361;38.954;-9.002;2022-11-15T02:46:52;100688.47;;;15.98;100.00
50434;BME280;36361;38.954;-9.002;2022-11-15T02:48:32;100685.25;;;15.84;100.00
50434;BME280;36361;38.954;-9.002;2022-11-15T02:49:53;100685.97;;;15.79;100.00
50434;BME280;36361;38.954;-9.002;2022-11-15T02:51:13;100678.50;;;15.91;100.00
50434;BME280;36361;38.954;-9.002;2022-11-15T02:52:33;100670.75;;;15.88;100.00
50434;BME280;36361;38.954;-9.002;2022-11-15T02:53:55;100681.81;;;16.10;100.00
50434;BME280;36361;38.954;-9.002;2022-11-15T02:55:30;100682.63;;;16.28;100.00
50434;BME280;36361;38.954;-9.002;2022-11-15T02:56:52;100678.19;;;16.27;100.00
50434;BME280;36361;38.954;-9.002;2022-11-15T02:58:22;100681.41;;;16.40;100.00
50434;BME280;36361;38.954;-9.002;2022-11-15T03:03:13;100673.63;;;16.15;100.00
50434;BME280;36361;38.954;-9.002;2022-11-15T03:04:57;100666.19;;;15.94;100.00
50434;BME280;36361;38.954;-9.002;2022-11-15T03:06:25;100674.97;;;16.13;100.00
50434;BME280;36361;38.954;-9.002;2022-11-15T03:12:51;100666.31;;;16.21;100.00
50434;BME280;36361;38.954;-9.002;2022-11-15T03:16:01;100665.28;;;16.27;100.00
50434;BME280;36361;38.954;-9.002;2022-11-15T03:17:33;100666.75;;;16.35;100.00
50434;BME280;36361;38.954;-9.002;2022-11-15T03:20:43;100672.00;;;16.36;100.00
50434;BME280;36361;38.954;-9.002;2022-11-15T03:22:04;100674.44;;;16.33;100.00
50434;BME280;36361;38.954;-9.002;2022-11-15T03:23:26;100673.38;;;16.17;100.00
50434;BME280;36361;38.954;-9.002;2022-11-15T03:24:52;100671.47;;;16.17;100.00
50434;BME280;36361;38.954;-9.002;2022-11-15T03:26:14;100671.56;;;16.23;100.00
50434;BME280;36361;38.954;-9.002;2022-11-15T03:27:39;100673.38;;;16.17;100.00
50434;BME280;36361;38.954;-9.002;2022-11-15T03:29:36;100666.28;;;16.38;100.00
50434;BME280;36361;38.954;-9.002;2022-11-15T03:30:57;100669.78;;;16.33;100.00
50434;BME280;36361;38.954;-9.002;2022-11-15T03:32:39;100666.38;;;16.26;100.00
50434;BME280;36361;38.954;-9.002;2022-11-15T03:34:00;100664.63;;;16.37;100.00
50434;BME280;36361;38.954;-9.002;2022-11-15T03:35:24;100659.13;;;16.37;100.00
50434;BME280;36361;38.954;-9.002;2022-11-15T03:36:44;100657.09;;;16.49;100.00
50434;BME280;36361;38.954;-9.002;2022-11-15T03:38:15;100651.75;;;16.42;100.00
50434;BME280;36361;38.954;-9.002;2022-11-15T03:39:38;100654.22;;;16.39;100.00
50434;BME280;36361;38.954;-9.002;2022-11-15T03:41:04;100652.59;;;16.43;100.00
50434;BME280;36361;38.954;-9.002;2022-11-15T03:42:30;100660.28;;;16.41;100.00
50434;BME280;36361;38.954;-9.002;2022-11-15T03:43:58;100656.13;;;16.38;100.00
50434;BME280;36361;38.954;-9.002;2022-11-15T03:45:30;100653.47;;;16.27;100.00
50434;BME280;36361;38.954;-9.002;2022-11-15T03:47:12;100653.28;;;16.33;100.00
50434;BME280;36361;38.954;-9.002;2022-11-15T03:48:38;100653.63;;;16.37;100.00
50434;BME280;36361;38.954;-9.002;2022-11-15T03:50:20;100647.38;;;16.41;100.00
50434;BME280;36361;38.954;-9.002;2022-11-15T03:51:40;100649.53;;;16.39;100.00
50434;BME280;36361;38.954;-9.002;2022-11-15T03:53:00;100648.75;;;16.44;100.00
50434;BME280;36361;38.954;-9.002;2022-11-15T03:54:19;100646.63;;;16.46;100.00
50434;BME280;36361;38.954;-9.002;2022-11-15T03:55:38;100637.91;;;16.54;100.00
50434;BME280;36361;38.954;-9.002;2022-11-15T03:56:58;100639.06;;;16.58;100.00
50434;BME280;36361;38.954;-9.002;2022-11-15T03:58:17;100628.72;;;16.65;100.00
50434;BME280;36361;38.954;-9.002;2022-11-15T03:59:36;100626.53;;;16.67;100.00
50434;BME280;36361;38.954;-9.002;2022-11-15T04:00:55;100630.81;;;16.58;100.00
50434;BME280;36361;38.954;-9.002;2022-11-15T04:02:15;100627.97;;;16.48;100.00
50434;BME280;36361;38.954;-9.002;2022-11-15T04:03:34;100642.19;;;16.45;100.00
50434;BME280;36361;38.954;-9.002;2022-11-15T04:04:53;100635.22;;;16.59;100.00
50434;BME280;36361;38.954;-9.002;2022-11-15T04:06:12;100635.75;;;16.56;100.00
50434;BME280;36361;38.954;-9.002;2022-11-15T04:07:31;100642.78;;;16.47;100.00
50434;BME280;36361;38.954;-9.002;2022-11-15T04:08:50;100643.41;;;16.54;100.00
50434;BME280;36361;38.954;-9.002;2022-11-15T04:10:10;100646.63;;;16.46;100.00
50434;BME280;36361;38.954;-9.002;2022-11-15T04:11:30;100640.41;;;16.56;100.00
50434;BME280;36361;38.954;-9.002;2022-11-15T04:12:49;100638.41;;;16.51;100.00
50434;BME280;36361;38.954;-9.002;2022-11-15T04:14:08;100634.09;;;16.55;100.00
50434;BME280;36361;38.954;-9.002;2022-11-15T04:15:27;100627.97;;;16.48;100.00
50434;BME280;36361;38.954;-9.002;2022-11-15T04:16:47;100627.97;;;16.48;100.00
50434;BME280;36361;38.954;-9.002;2022-11-15T04:18:06;100625.78;;;16.50;100.00
50434;BME280;36361;38.954;-9.002;2022-11-15T04:19:25;100622.06;;;16.61;100.00
50434;BME280;36361;38.954;-9.002;2022-11-15T04:21:03;100633.56;;;16.58;100.00
50434;BME280;36361;38.954;-9.002;2022-11-15T04:22:41;100643.53;;;16.64;100.00
50434;BME280;36361;38.954;-9.002;2022-11-15T04:24:19;100634.97;;;16.61;100.00
50434;BME280;36361;38.954;-9.002;2022-11-15T04:25:38;100638.72;;;16.55;100.00
50434;BME280;36361;38.954;-9.002;2022-11-15T04:27:01;100635.38;;;16.47;100.00
50434;BME280;36361;38.954;-9.002;2022-11-15T04:28:20;100644.22;;;16.55;100.00
50434;BME280;36361;38.954;-9.002;2022-11-15T04:29:39;100644.94;;;16.45;100.00
50434;BME280;36361;38.954;-9.002;2022-11-15T04:30:58;100633.94;;;16.45;100.00
50434;BME280;36361;38.954;-9.002;2022-11-15T04:32:17;100637.72;;;16.61;100.00
50434;BME280;36361;38.954;-9.002;2022-11-15T04:33:37;100631.38;;;16.60;100.00
50434;BME280;36361;38.954;-9.002;2022-11-15T04:34:56;100638.81;;;16.60;100.00
50434;BME280;36361;38.954;-9.002;2022-11-15T04:36:15;100639.50;;;16.50;100.00
50434;BME280;36361;38.954;-9.002;2022-11-15T04:37:54;100635.97;;;16.55;100.00
50434;BME280;36361;38.954;-9.002;2022-11-15T04:39:13;100636.25;;;16.53;100.00
50434;BME280;36361;38.954;-9.002;2022-11-15T04:40:32;100633.09;;;16.44;100.00
50434;BME280;36361;38.954;-9.002;2022-11-15T04:41:57;100628.44;;;16.45;100.00
50434;BME280;36361;38.954;-9.002;2022-11-15T04:43:19;100636.75;;;16.50;100.00
50434;BME280;36361;38.954;-9.002;2022-11-15T04:44:38;100637.50;;;16.45;100.00
50434;BME280;36361;38.954;-9.002;2022-11-15T04:45:58;100634.97;;;16.39;100.00
50434;BME280;36361;38.954;-9.002;2022-11-15T04:47:17;100634.75;;;16.45;100.00
50434;BME280;36361;38.954;-9.002;2022-11-15T04:48:36;100616.06;;;16.42;100.00
50434;BME280;36361;38.954;-9.002;2022-11-15T04:49:54;100615.34;;;16.52;100.00
50434;BME280;36361;38.954;-9.002;2022-11-15T04:51:13;100611.06;;;16.61;100.00
50434;BME280;36361;38.954;-9.002;2022-11-15T04:52:32;100611.97;;;16.45;100.00
50434;BME280;36361;38.954;-9.002;2022-11-15T04:53:51;100603.16;;;16.43;100.00
50434;BME280;36361;38.954;-9.002;2022-11-15T04:55:10;100600.59;;;16.58;100.00
50434;BME280;36361;38.954;-9.002;2022-11-15T04:56:29;100603.34;;;16.36;100.00
50434;BME280;36361;38.954;-9.002;2022-11-15T04:57:56;100603.03;;;16.33;100.00
50434;BME280;36361;38.954;-9.002;2022-11-15T04:59:15;100604.81;;;16.44;100.00
50434;BME280;36361;38.954;-9.002;2022-11-15T05:00:35;100606.22;;;16.25;100.00
50434;BME280;36361;38.954;-9.002;2022-11-15T05:01:53;100607.81;;;16.20;100.00
50434;BME280;36361;38.954;-9.002;2022-11-15T05:03:12;100609.53;;;16.27;100.00
50434;BME280;36361;38.954;-9.002;2022-11-15T05:04:50;100613.50;;;16.36;100.00
50434;BME280;36361;38.954;-9.002;2022-11-15T05:06:09;100617.00;;;16.53;100.00
50434;BME280;36361;38.954;-9.002;2022-11-15T05:07:28;100614.09;;;16.38;100.00
50434;BME280;36361;38.954;-9.002;2022-11-15T05:08:47;100618.47;;;16.61;100.00
50434;BME280;36361;38.954;-9.002;2022-11-15T05:10:07;100612.59;;;16.52;100.00
50434;BME280;36361;38.954;-9.002;2022-11-15T05:11:26;100606.44;;;16.40;100.00
50434;BME280;36361;38.954;-9.002;2022-11-15T05:12:48;100630.94;;;16.25;100.00
50434;BME280;36361;38.954;-9.002;2022-11-15T05:14:07;100625.78;;;16.50;100.00
50434;BME280;36361;38.954;-9.002;2022-11-15T05:15:25;100629.72;;;16.59;100.00
50434;BME280;36361;38.954;-9.002;2022-11-15T05:16:44;100634.97;;;16.39;100.00
50434;BME280;36361;38.954;-9.002;2022-11-15T05:18:03;100637.19;;;16.42;100.00
50434;BME280;36361;38.954;-9.002;2022-11-15T05:19:23;100631.06;;;16.35;100.00
50434;BME280;36361;38.954;-9.002;2022-11-15T05:20:41;100624.47;;;16.36;100.00
50434;BME280;36361;38.954;-9.002;2022-11-15T05:22:01;100634.47;;;16.42;100.00
50434;BME280;36361;38.954;-9.002;2022-11-15T05:23:20;100624.00;;;16.39;100.00
50434;BME280;36361;38.954;-9.002;2022-11-15T05:24:39;100628.22;;;16.68;100.00
50434;BME280;36361;38.954;-9.002;2022-11-15T05:26:00;100627.44;;;16.51;100.00
50434;BME280;36361;38.954;-9.002;2022-11-15T05:27:22;100626.28;;;16.47;100.00
50434;BME280;36361;38.954;-9.002;2022-11-15T05:28:42;100623.09;;;16.55;100.00
50434;BME280;36361;38.954;-9.002;2022-11-15T05:30:00;100622.50;;;16.53;100.00
50434;BME280;36361;38.954;-9.002;2022-11-15T05:31:19;100627.81;;;16.60;100.00
50434;BME280;36361;38.954;-9.002;2022-11-15T05:32:38;100622.34;;;16.38;100.00
50434;BME280;36361;38.954;-9.002;2022-11-15T05:33:58;100626.88;;;16.49;100.00
50434;BME280;36361;38.954;-9.002;2022-11-15T05:35:29;100625.56;;;16.73;100.00
50434;BME280;36361;38.954;-9.002;2022-11-15T05:36:50;100629.22;;;16.62;100.00
50434;BME280;36361;38.954;-9.002;2022-11-15T05:38:10;100624.63;;;16.46;100.00
50434;BME280;36361;38.954;-9.002;2022-11-15T05:39:29;100620.97;;;16.62;100.00
50434;BME280;36361;38.954;-9.002;2022-11-15T05:40:48;100618.28;;;16.45;100.00
50434;BME280;36361;38.954;-9.002;2022-11-15T05:42:11;100637.72;;;16.39;100.00
50434;BME280;36361;38.954;-9.002;2022-11-15T05:43:32;100629.47;;;16.39;100.00
50434;BME280;36361;38.954;-9.002;2022-11-15T05:44:55;100626.16;;;16.37;100.00
50434;BME280;36361;38.954;-9.002;2022-11-15T05:46:16;100629.47;;;16.39;100.00
50434;BME280;36361;38.954;-9.002;2022-11-15T05:47:38;100635.63;;;16.46;100.00
50434;BME280;36361;38.954;-9.002;2022-11-15T05:48:59;100634.75;;;16.45;100.00
50434;BME280;36361;38.954;-9.002;2022-11-15T05:50:19;100628.97;;;16.42;100.00
50434;BME280;36361;38.954;-9.002;2022-11-15T05:51:38;100624.03;;;16.44;100.00
50434;BME280;36361;38.954;-9.002;2022-11-15T05:52:58;100620.69;;;16.37;100.00
50434;BME280;36361;38.954;-9.002;2022-11-15T05:54:19;100617.34;;;16.35;100.00
50434;BME280;36361;38.954;-9.002;2022-11-15T05:55:40;100623.78;;;16.45;100.00
50434;BME280;36361;38.954;-9.002;2022-11-15T05:57:06;100614.84;;;16.33;100.00
50434;BME280;36361;38.954;-9.002;2022-11-15T05:58:26;100606.59;;;16.33;100.00
50434;BME280;36361;38.954;-9.002;2022-11-15T05:59:45;100602.72;;;16.51;100.00
50434;BME280;36361;38.954;-9.002;2022-11-15T06:01:04;100610.66;;;16.47;100.00
50434;BME280;36361;38.954;-9.002;2022-11-15T06:02:24;100611.47;;;16.48;100.00
50434;BME280;36361;38.954;-9.002;2022-11-15T06:03:43;100600.53;;;16.53;100.00
50434;BME280;36361;38.954;-9.002;2022-11-15T06:05:02;100615.22;;;16.42;100.00
50434;BME280;36361;38.954;-9.002;2022-11-15T06:06:22;100597.03;;;16.36;100.00
50434;BME280;36361;38.954;-9.002;2022-11-15T06:07:41;100606.75;;;16.65;100.00
50434;BME280;36361;38.954;-9.002;2022-11-15T06:09:01;100607.22;;;16.62;100.00
50434;BME280;36361;38.954;-9.002;2022-11-15T06:10:20;100619.75;;;16.53;100.00
50434;BME280;36361;38.954;-9.002;2022-11-15T06:11:40;100616.75;;;16.55;100.00
50434;BME280;36361;38.954;-9.002;2022-11-15T06:13:04;100627.31;;;16.41;100.00
50434;BME280;36361;38.954;-9.002;2022-11-15T06:14:23;100614.97;;;16.43;100.00
50434;BME280;36361;38.954;-9.002;2022-11-15T06:15:42;100624.47;;;16.36;100.00
50434;BME280;36361;38.954;-9.002;2022-11-15T06:17:02;100624.47;;;16.36;100.00
50434;BME280;36361;38.954;-9.002;2022-11-15T06:18:21;100625.00;;;16.33;100.00
50434;BME280;36361;38.954;-9.002;2022-11-15T06:19:40;100621.94;;;16.51;100.00
50434;BME280;36361;38.954;-9.002;2022-11-15T06:20:59;100616.06;;;16.64;100.00
50434;BME280;36361;38.954;-9.002;2022-11-15T06:22:19;100605.56;;;16.61;100.00
50434;BME280;36361;38.954;-9.002;2022-11-15T06:23:37;100619.75;;;16.53;100.00
50434;BME280;36361;38.954;-9.002;2022-11-15T06:24:56;100619.44;;;16.49;100.00
50434;BME280;36361;38.954;-9.002;2022-11-15T06:26:15;100610.94;;;16.51;100.00
50434;BME280;36361;38.954;-9.002;2022-11-15T06:27:35;100621.75;;;16.58;100.00
50434;BME280;36361;38.954;-9.002;2022-11-15T06:28:54;100613.25;;;16.59;100.00
50434;BME280;36361;38.954;-9.002;2022-11-15T06:30:13;100616.44;;;16.51;100.00
50434;BME280;36361;38.954;-9.002;2022-11-15T06:31:36;100615.72;;;16.61;100.00
50434;BME280;36361;38.954;-9.002;2022-11-15T06:33:02;100619.75;;;16.53;100.00
50434;BME280;36361;38.954;-9.002;2022-11-15T06:34:22;100623.59;;;16.52;100.00
50434;BME280;36361;38.954;-9.002;2022-11-15T06:35:41;100623.47;;;16.42;100.00
50434;BME280;36361;38.954;-9.002;2022-11-15T06:37:02;100625.13;;;16.43;100.00
50434;BME280;36361;38.954;-9.002;2022-11-15T06:38:22;100629.09;;;16.52;100.00
50434;BME280;36361;38.954;-9.002;2022-11-15T06:39:40;100629.63;;;16.49;100.00
50434;BME280;36361;38.954;-9.002;2022-11-15T06:41:08;100632.50;;;16.37;100.00
50434;BME280;36361;38.954;-9.002;2022-11-15T06:42:27;100616.97;;;16.48;100.00
50434;BME280;36361;38.954;-9.002;2022-11-15T06:43:46;100629.34;;;16.50;100.00
50434;BME280;36361;38.954;-9.002;2022-11-15T06:45:05;100626.88;;;16.49;100.00
50434;BME280;36361;38.954;-9.002;2022-11-15T06:46:24;100625.06;;;16.60;100.00
50434;BME280;36361;38.954;-9.002;2022-11-15T06:47:45;100624.75;;;16.56;100.00
50434;BME280;36361;38.954;-9.002;2022-11-15T06:49:05;100619.19;;;16.51;100.00
50434;BME280;36361;38.954;-9.002;2022-11-15T06:50:24;100609.22;;;16.45;100.00
50434;BME280;36361;38.954;-9.002;2022-11-15T06:51:43;100608.84;;;16.58;100.00
50434;BME280;36361;38.954;-9.002;2022-11-15T06:53:03;100611.22;;;16.71;100.00
50434;BME280;36361;38.954;-9.002;2022-11-15T06:54:23;100614.72;;;16.67;100.00
50434;BME280;36361;38.954;-9.002;2022-11-15T06:55:41;100614.25;;;16.53;100.00
50434;BME280;36361;38.954;-9.002;2022-11-15T06:57:04;100606.63;;;16.55;100.00
50434;BME280;36361;38.954;-9.002;2022-11-15T06:58:23;100613.78;;;16.56;100.00
50434;BME280;36361;38.954;-9.002;2022-11-15T06:59:42;100610.56;;;16.64;100.00
50434;BME280;36361;38.954;-9.002;2022-11-15T07:01:07;100620.09;;;16.57;100.00
50434;BME280;36361;38.954;-9.002;2022-11-15T07:02:27;100609.94;;;16.57;100.00
50434;BME280;36361;38.954;-9.002;2022-11-15T07:03:47;100629.44;;;16.56;100.00
50434;BME280;36361;38.954;-9.002;2022-11-15T07:05:06;100624.75;;;16.56;100.00
50434;BME280;36361;38.954;-9.002;2022-11-15T07:06:25;100622.72;;;16.68;100.00
50434;BME280;36361;38.954;-9.002;2022-11-15T07:07:51;100628.00;;;16.53;100.00
50434;BME280;36361;38.954;-9.002;2022-11-15T07:09:10;100633.03;;;16.61;100.00
50434;BME280;36361;38.954;-9.002;2022-11-15T07:10:29;100627.56;;;16.61;100.00
50434;BME280;36361;38.954;-9.002;2022-11-15T07:11:49;100623.09;;;16.55;100.00
50434;BME280;36361;38.954;-9.002;2022-11-15T07:13:07;100626.34;;;16.52;100.00
50434;BME280;36361;38.954;-9.002;2022-11-15T07:14:27;100619.38;;;16.66;100.00
50434;BME280;36361;38.954;-9.002;2022-11-15T07:15:45;100628.34;;;16.78;100.00
50434;BME280;36361;38.954;-9.002;2022-11-15T07:17:05;100628.03;;;16.75;100.00
50434;BME280;36361;38.954;-9.002;2022-11-15T07:18:24;100624.50;;;16.80;100.00
50434;BME280;36361;38.954;-9.002;2022-11-15T07:19:43;100611.22;;;16.71;100.00
50434;BME280;36361;38.954;-9.002;2022-11-15T07:21:03;100620.47;;;16.87;100.00
50434;BME280;36361;38.954;-9.002;2022-11-15T07:22:23;100613.13;;;16.93;100.00
50434;BME280;36361;38.954;-9.002;2022-11-15T07:23:42;100615.28;;;16.91;100.00